Time;durP1;ratioP1;P1;durP2;ratioP2;P2;SDS_P1;SDS_P2;PMS_P1;PMS_P2;Temp;Humidity;BMP_temperature;BMP_pressure;BME280_temperature;BME280_humidity;BME280_pressure;Samples;Min_cycle;Max_cycle;Signal;HPM_P1;HPM_P2
2022/04/10 00:01:26;;;;;;;;;;;3.90;99.90;;;;;;5093524;28;19967;-82
2022/04/10 00:03:53;;;;;;;;;;;3.90;99.90;;;;;;5093091;28;19971;-82
2022/04/10 00:06:20;;;;;;;;;;;3.10;99.90;;;;;;5093513;28;19959;-81
2022/04/10 00:08:47;;;;;;;;;;;3.80;99.90;;;;;;5092977;28;19974;-82
2022/04/10 00:11:13;;;;;;;;;;;3.60;99.90;;;;;;5093448;28;19968;-80
2022/04/10 00:13:42;;;;;;;;;;;3.60;99.90;;;;;;5093367;28;19924;-82
2022/04/10 00:16:08;;;;;;;;;;;3.40;99.90;;;;;;5092900;28;20386;-81
2022/04/10 00:18:36;;;;;;;;;;;3.30;99.90;;;;;;5092836;28;20419;-82
2022/04/10 00:21:03;;;;;;;;;;;3.30;99.90;;;;;;5092915;28;19931;-82
2022/04/10 00:23:30;;;;;;;;;;;4.00;99.90;;;;;;5092783;28;20335;-82
2022/04/10 00:25:57;;;;;;;;;;;3.40;99.90;;;;;;5092763;28;19928;-82
2022/04/10 00:28:23;;;;;;;;;;;3.40;99.90;;;;;;5093044;28;19982;-82
2022/04/10 00:30:52;;;;;;;;;;;3.30;99.90;;;;;;5092666;28;20030;-82
2022/04/10 00:33:18;;;;;;;;;;;3.20;99.90;;;;;;5092982;28;19928;-82
2022/04/10 00:35:45;;;;;;;;;;;2.80;99.90;;;;;;5092475;28;19971;-82
2022/04/10 00:38:12;;;;;;;;;;;3.00;99.90;;;;;;5092830;28;19968;-81
2022/04/10 00:40:39;;;;;;;;;;;3.00;99.90;;;;;;5092598;28;19932;-82
2022/04/10 00:43:06;;;;;;;;;;;3.00;99.90;;;;;;5093042;28;19975;-81
2022/04/10 00:45:32;;;;;;;;;;;3.00;99.90;;;;;;5092532;28;19982;-83
2022/04/10 00:48:00;;;;;;;;;;;3.00;99.90;;;;;;5096637;28;19981;-81
2022/04/10 00:50:27;;;;;;;;;;;3.00;99.90;;;;;;5096624;28;19967;-81
2022/04/10 00:52:55;;;;;;;;;;;3.00;99.90;;;;;;5096087;28;19979;-81
2022/04/10 00:55:22;;;;;;;;;;;2.90;99.90;;;;;;5096192;28;19924;-81
2022/04/10 00:57:48;;;;;;;;;;;2.80;99.90;;;;;;5096319;28;19997;-82
2022/04/10 01:00:17;;;;;;;;;;;3.20;99.90;;;;;;5096287;28;19970;-81
2022/04/10 01:02:44;;;;;;;;;;;2.80;99.90;;;;;;5095834;28;19931;-81
2022/04/10 01:05:12;;;;;;;;;;;2.70;99.90;;;;;;5096012;28;19928;-82
2022/04/10 01:07:39;;;;;;;;;;;2.60;99.90;;;;;;5095896;28;19979;-82
2022/04/10 01:10:06;;;;;;;;;;;2.60;99.90;;;;;;5096057;28;19924;-81
2022/04/10 01:12:33;;;;;;;;;;;2.60;99.90;;;;;;5095729;28;19971;-81
2022/04/10 01:15:01;;;;;;;;;;;2.50;99.90;;;;;;5095998;28;19924;-81
2022/04/10 01:17:29;;;;;;;;;;;2.50;99.90;;;;;;5095966;28;20354;-81
2022/04/10 01:19:56;;;;;;;;;;;2.50;99.90;;;;;;5095758;28;19955;-81
2022/04/10 01:22:33;;;;;;;;;;;2.50;99.90;;;;;;5095720;28;19924;-81
2022/04/10 01:25:01;;;;;;;;;;;2.50;99.90;;;;;;5095834;28;19924;-82
2022/04/10 01:27:28;;;;;;;;;;;2.50;99.90;;;;;;5095447;28;20523;-82
2022/04/10 01:29:55;;;;;;;;;;;2.40;99.90;;;;;;5095640;28;19971;-81
2022/04/10 01:32:22;;;;;;;;;;;2.40;99.90;;;;;;5095380;28;19953;-81
2022/04/10 01:34:49;;;;;;;;;;;2.40;99.90;;;;;;5095472;28;19975;-82
2022/04/10 01:37:16;;;;;;;;;;;2.40;99.90;;;;;;5095515;28;19924;-81
2022/04/10 01:39:44;;;;;;;;;;;2.40;99.90;;;;;;5095424;28;19928;-82
2022/04/10 01:42:11;;;;;;;;;;;2.40;99.90;;;;;;5095136;28;19972;-81
2022/04/10 01:44:42;;;;;;;;;;;2.40;99.90;;;;;;5094668;28;20297;-81
2022/04/10 01:47:08;;;;;;;;;;;2.40;99.90;;;;;;5095159;28;20465;-81
2022/04/10 01:49:35;;;;;;;;;;;1.70;99.90;;;;;;5095250;28;19963;-82
2022/04/10 01:52:02;;;;;;;;;;;2.30;99.90;;;;;;5095256;28;19924;-82
2022/04/10 01:54:29;;;;;;;;;;;2.30;99.90;;;;;;5094881;28;19928;-82
2022/04/10 01:56:57;;;;;;;;;;;2.30;99.90;;;;;;5095004;28;19924;-82
2022/04/10 01:59:24;;;;;;;;;;;2.30;99.90;;;;;;5095114;28;19990;-82
2022/04/10 02:01:50;;;;;;;;;;;2.20;99.90;;;;;;5095083;28;19924;-81
2022/04/10 02:04:19;;;;;;;;;;;2.20;99.90;;;;;;5094534;28;20373;-81
2022/04/10 02:06:46;;;;;;;;;;;2.70;99.90;;;;;;5094869;28;19924;-81
2022/04/10 02:09:12;;;;;;;;;;;2.20;99.90;;;;;;5094890;28;19971;-82
2022/04/10 02:11:39;;;;;;;;;;;2.10;99.90;;;;;;5094673;28;19967;-81
2022/04/10 02:14:08;;;;;;;;;;;2.10;99.90;;;;;;5094542;28;20374;-82
2022/04/10 02:16:34;;;;;;;;;;;2.10;99.90;;;;;;5094545;28;19975;-82
2022/04/10 02:19:01;;;;;;;;;;;2.10;99.90;;;;;;5094665;28;20639;-81
2022/04/10 02:21:28;;;;;;;;;;;2.10;99.90;;;;;;5094307;28;19976;-82
2022/04/10 02:23:54;;;;;;;;;;;2.00;99.90;;;;;;5094692;28;19963;-81
2022/04/10 02:26:21;;;;;;;;;;;2.00;99.90;;;;;;5094601;28;20369;-81
2022/04/10 02:28:48;;;;;;;;;;;2.90;99.90;;;;;;5094532;28;19979;-82
2022/04/10 02:31:16;;;;;;;;;;;2.00;99.90;;;;;;5094159;28;19975;-82
2022/04/10 02:33:43;;;;;;;;;;;2.00;99.90;;;;;;5094259;28;19924;-82
2022/04/10 02:36:09;;;;;;;;;;;1.90;99.90;;;;;;5094310;28;19954;-82
2022/04/10 02:38:36;;;;;;;;;;;1.90;99.90;;;;;;5093765;28;19931;-82
2022/04/10 02:41:03;;;;;;;;;;;1.90;99.90;;;;;;5093998;28;19963;-82
2022/04/10 02:43:30;;;;;;;;;;;1.90;99.90;;;;;;5093739;28;19935;-82
2022/04/10 02:45:56;;;;;;;;;;;1.90;99.90;;;;;;5094044;28;19928;-82
2022/04/10 02:48:24;;;;;;;;;;;1.90;99.90;;;;;;5094076;28;19959;-82
2022/04/10 02:50:51;;;;;;;;;;;1.80;99.90;;;;;;5094105;28;19974;-82
2022/04/10 02:53:18;;;;;;;;;;;1.90;99.90;;;;;;5093643;28;19975;-82
2022/04/10 02:55:45;;;;;;;;;;;1.80;99.90;;;;;;5093939;28;19977;-82
2022/04/10 02:58:12;;;;;;;;;;;1.90;99.90;;;;;;5093529;28;19982;-82
2022/04/10 03:00:38;;;;;;;;;;;1.80;99.90;;;;;;5093861;28;19931;-82
2022/04/10 03:03:05;;;;;;;;;;;1.90;99.90;;;;;;5094563;28;20368;-82
2022/04/10 03:05:33;;;;;;;;;;;1.80;99.90;;;;;;5094480;28;19963;-82
2022/04/10 03:08:00;;;;;;;;;;;1.90;99.90;;;;;;5094262;28;20050;-82
2022/04/10 03:10:27;;;;;;;;;;;1.80;99.90;;;;;;5094158;28;19925;-82
2022/04/10 03:12:53;;;;;;;;;;;1.80;99.90;;;;;;5094006;28;19971;-82
2022/04/10 03:15:20;;;;;;;;;;;1.80;99.90;;;;;;5094200;28;19932;-82
2022/04/10 03:17:47;;;;;;;;;;;1.70;99.90;;;;;;5094177;28;19977;-82
2022/04/10 03:20:14;;;;;;;;;;;1.70;99.90;;;;;;5094051;28;20370;-82
2022/04/10 03:22:42;;;;;;;;;;;1.70;99.90;;;;;;5093944;28;19928;-81
2022/04/10 03:25:09;;;;;;;;;;;1.70;99.90;;;;;;5094109;28;19978;-82
2022/04/10 03:27:36;;;;;;;;;;;1.70;99.90;;;;;;5093901;28;20417;-82
2022/04/10 03:30:03;;;;;;;;;;;2.10;99.90;;;;;;5094345;28;19924;-82
2022/04/10 03:32:30;;;;;;;;;;;1.60;99.90;;;;;;5094102;28;19924;-81
2022/04/10 03:34:56;;;;;;;;;;;1.70;99.90;;;;;;5093812;28;20006;-82
2022/04/10 03:37:23;;;;;;;;;;;1.90;99.90;;;;;;5094142;28;19965;-82
2022/04/10 03:39:51;;;;;;;;;;;1.70;99.90;;;;;;5093558;28;20363;-82
2022/04/10 03:42:18;;;;;;;;;;;1.70;99.90;;;;;;5094039;28;19925;-82
2022/04/10 03:44:45;;;;;;;;;;;2.60;99.90;;;;;;5093480;28;19946;-82
2022/04/10 03:47:11;;;;;;;;;;;1.60;99.90;;;;;;5086895;28;19983;-82
2022/04/10 03:49:38;;;;;;;;;;;1.60;99.90;;;;;;5093958;28;19977;-82
2022/04/10 03:52:05;;;;;;;;;;;1.60;99.90;;;;;;5094029;28;19947;-82
2022/04/10 03:54:32;;;;;;;;;;;1.60;99.90;;;;;;5093593;28;19979;-82
2022/04/10 03:57:00;;;;;;;;;;;1.70;99.90;;;;;;5093572;28;19967;-82
2022/04/10 03:59:27;;;;;;;;;;;1.60;99.90;;;;;;5093957;28;19984;-83
2022/04/10 04:01:53;;;;;;;;;;;1.60;99.90;;;;;;5093858;28;19924;-82
2022/04/10 04:04:21;;;;;;;;;;;1.70;99.90;;;;;;5093617;28;19979;-82
2022/04/10 04:06:48;;;;;;;;;;;1.80;99.90;;;;;;5093797;28;19997;-83
2022/04/10 04:09:15;;;;;;;;;;;1.80;99.90;;;;;;5093388;28;20414;-82
2022/04/10 04:11:41;;;;;;;;;;;1.70;99.90;;;;;;5093483;28;19924;-82
2022/04/10 04:14:11;;;;;;;;;;;1.60;99.90;;;;;;5093700;28;19985;-83
2022/04/10 04:16:37;;;;;;;;;;;1.60;99.90;;;;;;5093290;28;19931;-82
2022/04/10 04:19:04;;;;;;;;;;;1.50;99.90;;;;;;5093647;28;19979;-82
2022/04/10 04:21:31;;;;;;;;;;;1.50;99.90;;;;;;5095182;28;19928;-82
2022/04/10 04:23:58;;;;;;;;;;;1.60;99.90;;;;;;5096951;28;19967;-82
2022/04/10 04:26:24;;;;;;;;;;;1.40;99.90;;;;;;5097274;28;19924;-82
2022/04/10 04:28:51;;;;;;;;;;;1.40;99.90;;;;;;5096937;28;19971;-82
2022/04/10 04:31:19;;;;;;;;;;;1.40;99.90;;;;;;5097085;28;19977;-82
2022/04/10 04:33:46;;;;;;;;;;;1.50;99.90;;;;;;5096936;28;19975;-82
2022/04/10 04:36:12;;;;;;;;;;;1.50;99.90;;;;;;5096532;28;19924;-82
2022/04/10 04:38:39;;;;;;;;;;;1.50;99.90;;;;;;5096192;28;19978;-82
2022/04/10 04:41:08;;;;;;;;;;;1.60;99.90;;;;;;5096423;28;20373;-82
2022/04/10 04:43:34;;;;;;;;;;;1.70;99.90;;;;;;5097266;28;19931;-82
2022/04/10 04:46:01;;;;;;;;;;;1.70;99.90;;;;;;5096890;28;20379;-82
2022/04/10 04:48:29;;;;;;;;;;;1.70;99.90;;;;;;5097180;28;19967;-83
2022/04/10 04:50:57;;;;;;;;;;;1.70;99.90;;;;;;5097187;28;19985;-82
2022/04/10 04:53:23;;;;;;;;;;;1.90;99.90;;;;;;5097002;28;20446;-82
2022/04/10 04:55:50;;;;;;;;;;;1.80;99.90;;;;;;5096737;28;19970;-82
2022/04/10 04:58:17;;;;;;;;;;;2.10;99.90;;;;;;5096709;28;19967;-82
2022/04/10 05:00:44;;;;;;;;;;;1.80;99.90;;;;;;5096666;28;19932;-82
2022/04/10 05:03:10;;;;;;;;;;;1.80;99.90;;;;;;5096041;28;19928;-82
2022/04/10 05:05:38;;;;;;;;;;;1.70;99.90;;;;;;5096317;28;19928;-82
2022/04/10 05:08:06;;;;;;;;;;;1.70;99.90;;;;;;5096201;28;19979;-82
2022/04/10 05:10:32;;;;;;;;;;;1.60;99.90;;;;;;5095957;28;19967;-82
2022/04/10 05:12:59;;;;;;;;;;;1.70;99.90;;;;;;5096383;28;20326;-82
2022/04/10 05:15:26;;;;;;;;;;;1.70;99.90;;;;;;5095845;28;19967;-82
2022/04/10 05:17:53;;;;;;;;;;;1.60;99.90;;;;;;5095915;28;19967;-82
2022/04/10 05:20:19;;;;;;;;;;;1.60;99.90;;;;;;5096138;28;19925;-82
2022/04/10 05:22:47;;;;;;;;;;;1.60;99.90;;;;;;5096210;28;19924;-82
2022/04/10 05:25:14;;;;;;;;;;;2.00;99.90;;;;;;5095904;28;20415;-82
2022/04/10 05:27:41;;;;;;;;;;;1.60;99.90;;;;;;5095981;28;19932;-82
2022/04/10 05:30:08;;;;;;;;;;;1.70;99.90;;;;;;5096118;28;19963;-82
2022/04/10 05:32:35;;;;;;;;;;;1.80;99.90;;;;;;5095521;28;19924;-82
2022/04/10 05:35:02;;;;;;;;;;;1.80;99.90;;;;;;5095196;28;20328;-82
2022/04/10 05:37:29;;;;;;;;;;;1.90;99.90;;;;;;5095615;28;20435;-82
2022/04/10 05:39:57;;;;;;;;;;;2.00;99.90;;;;;;5095631;28;19964;-82
2022/04/10 05:42:24;;;;;;;;;;;2.20;99.90;;;;;;5095967;28;19977;-82
2022/04/10 05:44:50;;;;;;;;;;;2.30;99.90;;;;;;5095893;28;19986;-82
2022/04/10 05:47:19;;;;;;;;;;;2.40;99.90;;;;;;5095545;28;19928;-82
2022/04/10 05:49:45;;;;;;;;;;;2.40;99.90;;;;;;5095582;28;19924;-82
2022/04/10 05:52:12;;;;;;;;;;;2.50;99.90;;;;;;5095744;28;19970;-82
2022/04/10 05:54:39;;;;;;;;;;;2.50;99.90;;;;;;5095318;28;19959;-82
2022/04/10 05:57:07;;;;;;;;;;;2.50;99.90;;;;;;5095757;28;19960;-82
2022/04/10 05:59:34;;;;;;;;;;;2.40;99.90;;;;;;5095732;28;19963;-81
2022/04/10 06:02:01;;;;;;;;;;;2.60;99.90;;;;;;5095877;28;19928;-82
2022/04/10 06:04:27;;;;;;;;;;;2.70;99.90;;;;;;5095559;28;19989;-82
2022/04/10 06:06:54;;;;;;;;;;;2.70;99.90;;;;;;5095297;28;19971;-82
2022/04/10 06:09:21;;;;;;;;;;;2.80;99.90;;;;;;5095298;28;20339;-82
2022/04/10 06:11:47;;;;;;;;;;;3.00;99.90;;;;;;5095218;28;20081;-82
2022/04/10 06:14:16;;;;;;;;;;;3.20;99.90;;;;;;5095131;28;19977;-82
2022/04/10 06:16:42;;;;;;;;;;;3.40;99.90;;;;;;5095094;28;19969;-82
2022/04/10 06:19:09;;;;;;;;;;;3.60;99.90;;;;;;5095244;28;19969;-82
2022/04/10 06:21:36;;;;;;;;;;;3.70;99.90;;;;;;5094907;28;20378;-82
2022/04/10 06:24:02;;;;;;;;;;;3.70;99.90;;;;;;5095141;28;19970;-82
2022/04/10 06:26:29;;;;;;;;;;;3.60;99.90;;;;;;5094859;28;20386;-82
2022/04/10 06:28:56;;;;;;;;;;;4.70;99.90;;;;;;5094832;28;19924;-82
2022/04/10 06:31:25;;;;;;;;;;;3.60;99.90;;;;;;5094729;28;19969;-82
2022/04/10 06:33:54;;;;;;;;;;;3.60;99.90;;;;;;5095067;28;19979;-82
2022/04/10 06:36:20;;;;;;;;;;;3.60;99.90;;;;;;5095000;28;19924;-82
2022/04/10 06:38:48;;;;;;;;;;;4.60;99.90;;;;;;5094584;28;19967;-82
2022/04/10 06:41:15;;;;;;;;;;;3.80;99.90;;;;;;5094992;28;19924;-82
2022/04/10 06:43:42;;;;;;;;;;;3.80;99.90;;;;;;5094049;28;19925;-82
2022/04/10 06:46:08;;;;;;;;;;;3.90;99.90;;;;;;5094509;28;19970;-82
2022/04/10 06:48:38;;;;;;;;;;;4.00;99.90;;;;;;5094842;28;19955;-82
2022/04/10 06:51:05;;;;;;;;;;;4.10;99.90;;;;;;5094606;28;19930;-82
2022/04/10 06:53:31;;;;;;;;;;;4.00;99.90;;;;;;5094699;28;20301;-82
2022/04/10 06:55:58;;;;;;;;;;;4.10;99.90;;;;;;5094153;28;19932;-82
2022/04/10 06:58:25;;;;;;;;;;;4.40;99.90;;;;;;5093818;28;19982;-82
2022/04/10 07:00:51;;;;;;;;;;;4.20;99.90;;;;;;5094070;28;19971;-81
2022/04/10 07:03:18;;;;;;;;;;;4.30;99.90;;;;;;5093720;28;19974;-81
2022/04/10 07:05:48;;;;;;;;;;;4.40;99.90;;;;;;5093880;28;19978;-81
2022/04/10 07:08:15;;;;;;;;;;;4.50;99.90;;;;;;5093889;28;19931;-83
2022/04/10 07:10:42;;;;;;;;;;;4.70;99.90;;;;;;5094575;28;19928;-81
2022/04/10 07:13:08;;;;;;;;;;;4.70;99.90;;;;;;5094253;28;19977;-81
2022/04/10 07:15:35;;;;;;;;;;;4.90;99.90;;;;;;5094408;28;20283;-82
2022/04/10 07:18:02;;;;;;;;;;;4.80;99.90;;;;;;5094009;28;19971;-81
2022/04/10 07:20:29;;;;;;;;;;;4.90;99.90;;;;;;5094293;28;20263;-81
2022/04/10 07:25:53;;;;;;;;;;;4.90;99.90;;;;;;5051654;28;19925;-82
2022/04/10 07:28:20;;;;;;;;;;;4.90;99.90;;;;;;5083896;28;19924;-82
2022/04/10 07:30:47;;;;;;;;;;;5.00;99.90;;;;;;5093814;28;19989;-82
2022/04/10 07:33:14;;;;;;;;;;;5.00;99.90;;;;;;5094171;28;19924;-81
2022/04/10 07:35:41;;;;;;;;;;;5.00;99.90;;;;;;5094086;28;19990;-81
2022/04/10 07:38:10;;;;;;;;;;;5.10;99.90;;;;;;5093650;28;19924;-81
2022/04/10 07:40:38;;;;;;;;;;;5.30;99.90;;;;;;5094179;28;19931;-81
2022/04/10 07:43:05;;;;;;;;;;;5.40;99.90;;;;;;5093885;28;19925;-81
2022/04/10 07:48:16;;;;;;;;;;;5.60;99.90;;;;;;5093883;28;19931;-81
2022/04/10 07:50:43;;;;;;;;;;;5.70;99.90;;;;;;5093806;28;19924;-81
2022/04/10 07:53:11;;;;;;;;;;;5.70;99.90;;;;;;5093799;28;19971;-81
2022/04/10 07:55:38;;;;;;;;;;;6.30;99.90;;;;;;5095883;28;19985;-81
2022/04/10 07:58:04;;;;;;;;;;;5.80;99.90;;;;;;5098005;28;19924;-81
2022/04/10 08:00:33;;;;;;;;;;;5.90;99.90;;;;;;5097781;28;19994;-81
2022/04/10 08:02:59;;;;;;;;;;;5.90;99.90;;;;;;5098034;28;20279;-81
2022/04/10 08:05:26;;;;;;;;;;;6.10;99.90;;;;;;5097960;28;19924;-81
2022/04/10 08:07:53;;;;;;;;;;;6.30;99.90;;;;;;5097808;28;19959;-81
2022/04/10 08:10:22;;;;;;;;;;;6.30;99.90;;;;;;5097621;28;19967;-80
2022/04/10 08:12:49;;;;;;;;;;;6.20;99.90;;;;;;5097825;28;19985;-81
2022/04/10 08:15:16;;;;;;;;;;;6.30;99.90;;;;;;5097825;28;19955;-81
2022/04/10 08:17:42;;;;;;;;;;;6.40;99.90;;;;;;5097671;28;19971;-81
2022/04/10 08:20:10;;;;;;;;;;;6.30;99.90;;;;;;5097366;28;19967;-82
2022/04/10 08:22:37;;;;;;;;;;;6.60;99.90;;;;;;5097113;28;19924;-81
2022/04/10 08:25:06;;;;;;;;;;;6.70;99.90;;;;;;5097618;28;20354;-82
2022/04/10 08:27:34;;;;;;;;;;;6.80;99.90;;;;;;5097377;28;19961;-82
2022/04/10 08:30:01;;;;;;;;;;;6.70;99.90;;;;;;5097658;28;19924;-81
2022/04/10 08:32:35;;;;;;;;;;;6.70;99.90;;;;;;5097141;28;19981;-82
2022/04/10 08:35:02;;;;;;;;;;;6.80;99.90;;;;;;5096902;28;19973;-81
2022/04/10 08:37:28;;;;;;;;;;;7.00;99.90;;;;;;5097278;28;19924;-81
2022/04/10 08:39:55;;;;;;;;;;;6.90;99.90;;;;;;5097022;28;19946;-81
2022/04/10 08:42:22;;;;;;;;;;;7.10;99.90;;;;;;5096972;28;19971;-81
2022/04/10 08:44:50;;;;;;;;;;;7.30;99.90;;;;;;5096591;28;19979;-81
2022/04/10 08:47:20;;;;;;;;;;;7.20;99.90;;;;;;5097035;28;19979;-81
2022/04/10 08:49:47;;;;;;;;;;;7.20;99.90;;;;;;5097075;28;19928;-82
2022/04/10 08:52:18;;;;;;;;;;;7.20;99.90;;;;;;5096803;28;19971;-81
2022/04/10 08:54:45;;;;;;;;;;;7.40;99.90;;;;;;5096606;28;20439;-81
2022/04/10 08:57:12;;;;;;;;;;;7.50;99.90;;;;;;5096383;28;19924;-81
2022/04/10 08:59:38;;;;;;;;;;;7.50;99.90;;;;;;5096801;28;19963;-81
2022/04/10 09:02:07;;;;;;;;;;;7.60;99.90;;;;;;5096640;28;19967;-82
2022/04/10 09:04:33;;;;;;;;;;;7.70;99.90;;;;;;5097013;28;19963;-82
2022/04/10 09:07:02;;;;;;;;;;;7.80;99.90;;;;;;5095864;28;19924;-82
2022/04/10 09:09:30;;;;;;;;;;;7.90;99.90;;;;;;5096197;28;19977;-82
2022/04/10 09:11:57;;;;;;;;;;;8.00;99.90;;;;;;5096621;28;19924;-82
2022/04/10 09:14:24;;;;;;;;;;;8.20;99.90;;;;;;5096402;28;19924;-82
2022/04/10 09:17:06;;;;;;;;;;;8.40;99.90;;;;;;5096150;28;19931;-82
2022/04/10 09:19:37;;;;;;;;;;;8.60;99.90;;;;;;5095354;28;20398;-81
2022/04/10 09:22:18;;;;;;;;;;;8.60;99.90;;;;;;5096136;28;19924;-82
2022/04/10 09:25:00;;;;;;;;;;;8.70;99.90;;;;;;5095623;28;19974;-81
2022/04/10 09:27:29;;;;;;;;;;;8.90;99.90;;;;;;5095724;28;19993;-82
2022/04/10 09:29:56;;;;;;;;;;;9.00;99.90;;;;;;5095421;28;20338;-82
2022/04/10 09:32:22;;;;;;;;;;;9.10;99.90;;;;;;5096637;28;19928;-82
2022/04/10 09:34:57;;;;;;;;;;;8.90;99.90;;;;;;5095043;28;19924;-81
2022/04/10 09:37:27;;;;;;;;;;;9.00;99.90;;;;;;5095578;28;19971;-82
2022/04/10 09:39:54;;;;;;;;;;;9.20;99.90;;;;;;5095897;28;19928;-82
2022/04/10 09:42:30;;;;;;;;;;;9.10;99.90;;;;;;5096101;28;19924;-82
2022/04/10 09:44:57;;;;;;;;;;;9.00;99.90;;;;;;5096001;28;19982;-81
2022/04/10 09:47:25;;;;;;;;;;;9.00;99.90;;;;;;5096217;28;19924;-81
2022/04/10 09:49:53;;;;;;;;;;;9.50;99.90;;;;;;5095904;28;19924;-81
2022/04/10 09:52:21;;;;;;;;;;;9.50;99.90;;;;;;5095177;28;19925;-81
2022/04/10 09:54:50;;;;;;;;;;;9.80;99.90;;;;;;5095516;28;20443;-81
2022/04/10 09:57:18;;;;;;;;;;;9.90;99.90;;;;;;5095146;28;20374;-81
2022/04/10 09:59:45;;;;;;;;;;;10.10;99.90;;;;;;5095610;28;20282;-81
2022/04/10 10:02:13;;;;;;;;;;;10.00;99.50;;;;;;5095014;28;19974;-81
2022/04/10 10:04:40;;;;;;;;;;;10.00;99.90;;;;;;5095130;28;19982;-80
2022/04/10 10:07:09;;;;;;;;;;;9.90;99.60;;;;;;5095507;28;20292;-81
2022/04/10 10:09:38;;;;;;;;;;;10.00;99.20;;;;;;5095605;28;19930;-81
2022/04/10 10:12:05;;;;;;;;;;;10.00;98.40;;;;;;5095201;28;19924;-81
2022/04/10 10:14:33;;;;;;;;;;;10.10;98.90;;;;;;5095374;28;20020;-81
2022/04/10 10:17:00;;;;;;;;;;;10.30;97.80;;;;;;5095129;28;19975;-81
2022/04/10 10:19:28;;;;;;;;;;;10.00;98.20;;;;;;5093998;28;19971;-81
2022/04/10 10:21:55;;;;;;;;;;;9.90;98.70;;;;;;5094893;28;19924;-82
2022/04/10 10:24:23;;;;;;;;;;;9.80;98.40;;;;;;5094946;28;19936;-81
2022/04/10 10:26:58;;;;;;;;;;;10.00;98.90;;;;;;5095140;28;19924;-82
2022/04/10 10:29:37;;;;;;;;;;;10.30;97.30;;;;;;5094984;28;19963;-82
2022/04/10 10:32:11;;;;;;;;;;;10.30;97.50;;;;;;5084004;28;20382;-81
2022/04/10 10:34:39;;;;;;;;;;;10.20;96.80;;;;;;5081691;28;19947;-81
2022/04/10 10:37:05;;;;;;;;;;;10.20;97.10;;;;;;5105620;28;20435;-81
2022/04/10 10:39:33;;;;;;;;;;;10.10;96.90;;;;;;5114582;28;19959;-80
2022/04/10 10:42:11;;;;;;;;;;;10.10;96.90;;;;;;5115027;28;20327;-81
2022/04/10 10:44:43;;;;;;;;;;;10.30;96.50;;;;;;5114826;28;19924;-82
2022/04/10 10:47:16;;;;;;;;;;;10.60;97.00;;;;;;5115215;28;19931;-81
2022/04/10 10:49:44;;;;;;;;;;;10.80;95.90;;;;;;5114791;28;19985;-82
2022/04/10 10:52:11;;;;;;;;;;;10.70;96.20;;;;;;5114242;28;19931;-81
2022/04/10 10:54:42;;;;;;;;;;;10.90;96.40;;;;;;5114933;28;19924;-81
2022/04/10 10:57:28;;;;;;;;;;;10.80;96.20;;;;;;5097739;28;19977;-81
2022/04/10 11:00:06;;;;;;;;;;;10.80;96.10;;;;;;5094455;28;19924;-81
2022/04/10 11:02:34;;;;;;;;;;;10.50;96.70;;;;;;5094821;28;19924;-81
2022/04/10 11:05:01;;;;;;;;;;;10.60;96.70;;;;;;5094065;28;20024;-81
2022/04/10 11:07:28;;;;;;;;;;;10.90;96.40;;;;;;5094535;28;19978;-81
2022/04/10 11:09:58;;;;;;;;;;;11.10;95.80;;;;;;5093899;28;19959;-81
2022/04/10 11:12:29;;;;;;;;;;;11.00;94.30;;;;;;5093749;28;20325;-82
2022/04/10 11:14:56;;;;;;;;;;;10.60;94.40;;;;;;5094490;28;19946;-82
2022/04/10 11:17:28;;;;;;;;;;;11.20;94.00;;;;;;5096346;28;19949;-83
2022/04/10 11:19:56;;;;;;;;;;;11.30;94.10;;;;;;5094057;28;20007;-82
2022/04/10 11:22:23;;;;;;;;;;;11.40;94.20;;;;;;5093907;28;19928;-81
2022/04/10 11:24:53;;;;;;;;;;;11.70;93.70;;;;;;5094270;28;19924;-82
2022/04/10 11:27:47;;;;;;;;;;;11.60;93.20;;;;;;5094221;28;20023;-81
2022/04/10 11:30:15;;;;;;;;;;;11.70;93.60;;;;;;5045371;28;19932;-82
2022/04/10 11:32:44;;;;;;;;;;;11.50;93.20;;;;;;5094664;28;19924;-82
2022/04/10 11:35:14;;;;;;;;;;;11.90;93.70;;;;;;5093995;28;19924;-82
2022/04/10 11:37:40;;;;;;;;;;;11.60;93.30;;;;;;5092789;28;19947;-81
2022/04/10 11:40:11;;;;;;;;;;;11.90;92.90;;;;;;5093300;28;20454;-82
2022/04/10 11:42:38;;;;;;;;;;;11.80;93.00;;;;;;5094472;28;19978;-82
2022/04/10 11:45:05;;;;;;;;;;;11.70;93.30;;;;;;5094046;28;19924;-81
2022/04/10 11:47:32;;;;;;;;;;;11.80;93.70;;;;;;5094014;28;20407;-82
2022/04/10 11:50:01;;;;;;;;;;;11.70;92.90;;;;;;5093525;28;20529;-83
2022/04/10 11:52:28;;;;;;;;;;;11.90;91.30;;;;;;5093658;28;19928;-82
2022/04/10 11:54:55;;;;;;;;;;;11.70;92.80;;;;;;5094038;28;19924;-81
2022/04/10 11:57:22;;;;;;;;;;;11.80;93.50;;;;;;5093397;28;19960;-82
2022/04/10 11:59:49;;;;;;;;;;;12.20;92.90;;;;;;5093278;28;19936;-81
2022/04/10 12:02:16;;;;;;;;;;;12.50;91.30;;;;;;5093185;28;19977;-82
2022/04/10 12:04:43;;;;;;;;;;;12.60;90.70;;;;;;5093187;28;20001;-81
2022/04/10 12:07:13;;;;;;;;;;;12.30;91.30;;;;;;5092427;28;20296;-81
2022/04/10 12:09:40;;;;;;;;;;;12.30;90.90;;;;;;5092866;28;19934;-81
2022/04/10 12:12:07;;;;;;;;;;;12.30;91.00;;;;;;5094829;28;19924;-81
2022/04/10 12:14:34;;;;;;;;;;;12.20;90.60;;;;;;5093170;28;20012;-82
2022/04/10 12:17:01;;;;;;;;;;;12.30;90.50;;;;;;5093315;28;19931;-82
2022/04/10 12:19:32;;;;;;;;;;;12.00;91.40;;;;;;5093218;28;19994;-81
2022/04/10 12:21:58;;;;;;;;;;;12.00;91.50;;;;;;5093178;28;19969;-81
2022/04/10 12:24:26;;;;;;;;;;;12.40;90.80;;;;;;5093050;28;19963;-81
2022/04/10 12:26:53;;;;;;;;;;;12.50;90.70;;;;;;5093655;28;19924;-82
2022/04/10 12:29:21;;;;;;;;;;;12.80;91.00;;;;;;5093619;28;19927;-82
2022/04/10 12:31:48;;;;;;;;;;;12.80;88.80;;;;;;5094939;28;20072;-82
2022/04/10 12:34:15;;;;;;;;;;;12.90;89.50;;;;;;5093193;28;19981;-82
2022/04/10 12:36:45;;;;;;;;;;;13.00;89.60;;;;;;5093181;28;19925;-82
2022/04/10 12:39:22;;;;;;;;;;;13.10;90.20;;;;;;5092977;28;19924;-82
2022/04/10 12:41:59;;;;;;;;;;;12.80;90.80;;;;;;5094024;28;19964;-82
2022/04/10 12:44:26;;;;;;;;;;;13.30;90.50;;;;;;5096869;28;20449;-82
2022/04/10 12:46:53;;;;;;;;;;;13.40;89.30;;;;;;5096897;28;19924;-82
2022/04/10 12:49:20;;;;;;;;;;;13.20;90.10;;;;;;5096775;28;20542;-82
2022/04/10 12:51:47;;;;;;;;;;;13.40;90.70;;;;;;5097142;28;19924;-82
2022/04/10 12:54:14;;;;;;;;;;;13.60;90.30;;;;;;5096988;28;20024;-82
2022/04/10 12:56:41;;;;;;;;;;;13.80;90.00;;;;;;5096691;28;19936;-82
2022/04/10 12:59:09;;;;;;;;;;;13.80;88.10;;;;;;5097199;28;19974;-82
2022/04/10 13:01:36;;;;;;;;;;;13.70;88.10;;;;;;5096911;28;19974;-82
2022/04/10 13:04:03;;;;;;;;;;;13.30;89.20;;;;;;5096556;28;19924;-82
2022/04/10 13:06:49;;;;;;;;;;;13.10;89.20;;;;;;5096810;28;19970;-82
2022/04/10 13:09:17;;;;;;;;;;;13.20;88.60;;;;;;5096183;28;19931;-82
2022/04/10 13:11:43;;;;;;;;;;;13.60;87.40;;;;;;5096565;28;19924;-82
2022/04/10 13:14:13;;;;;;;;;;;13.80;86.50;;;;;;5096334;28;19924;-82
2022/04/10 13:16:40;;;;;;;;;;;13.80;86.00;;;;;;5096329;28;20489;-82
2022/04/10 13:19:08;;;;;;;;;;;13.90;86.50;;;;;;5096200;28;19928;-82
2022/04/10 13:21:35;;;;;;;;;;;13.90;85.30;;;;;;5096183;28;20391;-83
2022/04/10 13:24:02;;;;;;;;;;;13.90;84.80;;;;;;5096390;28;19974;-82
2022/04/10 13:26:30;;;;;;;;;;;13.90;83.30;;;;;;5096010;28;19928;-82
2022/04/10 13:28:57;;;;;;;;;;;14.00;84.20;;;;;;5096278;28;19924;-81
2022/04/10 13:31:25;;;;;;;;;;;14.00;83.20;;;;;;5096029;28;19975;-83
2022/04/10 13:33:52;;;;;;;;;;;14.00;82.50;;;;;;5096097;28;19924;-81
2022/04/10 13:36:18;;;;;;;;;;;13.90;80.30;;;;;;5095653;28;19928;-81
2022/04/10 13:38:45;;;;;;;;;;;14.10;81.20;;;;;;5095608;28;19928;-81
2022/04/10 13:41:12;;;;;;;;;;;13.70;77.20;;;;;;5096335;28;19928;-82
2022/04/10 13:43:39;;;;;;;;;;;13.30;79.30;;;;;;5096072;28;19924;-82
2022/04/10 13:46:06;;;;;;;;;;;13.30;79.20;;;;;;5095398;28;20366;-82
2022/04/10 13:48:34;;;;;;;;;;;13.50;78.70;;;;;;5096089;28;20350;-81
2022/04/10 13:51:02;;;;;;;;;;;13.40;79.80;;;;;;5095690;28;20363;-82
2022/04/10 13:53:28;;;;;;;;;;;13.60;80.60;;;;;;5095021;28;19935;-81
2022/04/10 13:55:55;;;;;;;;;;;13.80;79.90;;;;;;5095384;28;19960;-82
2022/04/10 13:58:22;;;;;;;;;;;13.90;80.50;;;;;;5095295;28;19978;-82
2022/04/10 14:00:49;;;;;;;;;;;14.00;80.50;;;;;;5096614;28;19946;-82
2022/04/10 14:03:15;;;;;;;;;;;14.10;80.80;;;;;;5095384;28;20381;-81
2022/04/10 14:05:45;;;;;;;;;;;14.00;81.60;;;;;;5095614;28;20286;-81
2022/04/10 14:08:12;;;;;;;;;;;14.00;80.70;;;;;;5095474;28;19924;-81
2022/04/10 14:10:39;;;;;;;;;;;14.00;80.30;;;;;;5095602;28;19936;-81
2022/04/10 14:13:05;;;;;;;;;;;14.20;80.30;;;;;;5097156;28;19924;-83
2022/04/10 14:15:34;;;;;;;;;;;13.90;80.10;;;;;;5095251;28;19979;-82
2022/04/10 14:18:00;;;;;;;;;;;13.80;79.60;;;;;;5095103;28;19928;-82
2022/04/10 14:20:27;;;;;;;;;;;13.50;79.70;;;;;;5095287;28;19928;-82
2022/04/10 14:22:55;;;;;;;;;;;13.70;80.00;;;;;;5095182;28;19924;-81
2022/04/10 14:25:22;;;;;;;;;;;13.90;80.00;;;;;;5094639;28;19928;-82
2022/04/10 14:27:49;;;;;;;;;;;14.00;80.00;;;;;;5094657;28;20012;-83
2022/04/10 14:30:15;;;;;;;;;;;14.10;79.60;;;;;;5094705;28;20004;-82
2022/04/10 14:32:42;;;;;;;;;;;14.10;79.70;;;;;;5094313;28;19959;-82
2022/04/10 14:35:09;;;;;;;;;;;13.70;79.30;;;;;;5094389;28;20023;-82